createdAt,value
2022-12-01T00:01:36.440Z,80.96
2022-12-01T00:04:05.106Z,80.64
2022-12-01T00:06:33.380Z,80.58
2022-12-01T00:09:20.603Z,80.88
2022-12-01T00:11:49.285Z,80.95
2022-12-01T00:14:17.895Z,80.82
2022-12-01T00:16:46.327Z,80.77
2022-12-01T00:19:14.648Z,81.32
2022-12-01T00:21:43.129Z,80.90
2022-12-01T00:24:12.185Z,80.77
2022-12-01T00:26:40.565Z,81.24
2022-12-01T00:29:09.498Z,81.31
2022-12-01T00:31:37.906Z,81.25
2022-12-01T00:34:11.156Z,81.42
2022-12-01T00:36:39.872Z,81.03
2022-12-01T00:39:08.777Z,81.39
2022-12-01T00:41:37.022Z,81.33
2022-12-01T00:44:05.560Z,81.10
2022-12-01T00:46:34.004Z,81.17
2022-12-01T00:49:02.351Z,81.04
2022-12-01T00:51:30.712Z,81.25
2022-12-01T00:53:59.243Z,81.34
2022-12-01T00:56:27.611Z,81.19
2022-12-01T00:58:56.199Z,81.53
2022-12-01T01:01:24.553Z,80.98
2022-12-01T01:03:52.816Z,81.40
2022-12-01T01:06:21.048Z,81.23
2022-12-01T01:08:49.362Z,81.68
2022-12-01T01:11:17.996Z,81.25
2022-12-01T01:13:46.364Z,81.34
2022-12-01T01:16:21.043Z,81.31
2022-12-01T01:18:49.536Z,80.98
2022-12-01T01:21:21.191Z,81.00
2022-12-01T01:23:50.949Z,81.35
2022-12-01T01:26:22.808Z,81.46
2022-12-01T01:28:52.046Z,81.72
2022-12-01T01:31:22.574Z,81.52
2022-12-01T01:33:51.150Z,81.49
2022-12-01T01:36:19.927Z,81.29
2022-12-01T01:38:48.610Z,81.38
2022-12-01T01:41:16.904Z,81.68
2022-12-01T01:43:49.565Z,81.63
2022-12-01T01:46:23.248Z,81.53
2022-12-01T01:48:53.844Z,81.85
2022-12-01T01:51:31.065Z,81.73
2022-12-01T01:54:16.440Z,81.51
2022-12-01T01:56:46.268Z,81.42
2022-12-01T01:59:21.497Z,81.47
2022-12-01T02:01:57.183Z,81.31
2022-12-01T02:04:27.053Z,81.62
2022-12-01T02:06:55.736Z,81.85
2022-12-01T02:09:23.879Z,81.46
2022-12-01T02:12:25.212Z,81.74
2022-12-01T02:15:14.682Z,81.90
2022-12-01T02:18:04.576Z,81.77
2022-12-01T02:21:00.663Z,81.63
2022-12-01T02:23:59.895Z,81.86
2022-12-01T02:26:39.823Z,81.86
2022-12-01T02:29:36.273Z,81.67
2022-12-01T02:32:30.374Z,81.68
2022-12-01T02:35:07.152Z,81.95
2022-12-01T02:37:40.848Z,81.92
2022-12-01T02:40:20.547Z,81.84
2022-12-01T02:43:05.902Z,81.91
2022-12-01T02:45:51.972Z,81.74
2022-12-01T02:48:31.151Z,81.88
2022-12-01T02:51:06.521Z,81.98
2022-12-01T02:53:35.562Z,81.73
2022-12-01T02:56:07.993Z,81.72
2022-12-01T02:58:36.452Z,81.87
2022-12-01T03:01:33.949Z,81.62
2022-12-01T03:04:29.797Z,81.98
2022-12-01T03:07:21.245Z,81.79
2022-12-01T03:10:10.060Z,81.88
2022-12-01T03:13:04.000Z,81.71
2022-12-01T03:15:56.479Z,81.92
2022-12-01T03:18:38.753Z,81.76
2022-12-01T03:21:20.517Z,82.24
2022-12-01T03:23:55.651Z,82.64
2022-12-01T03:26:27.772Z,82.20
2022-12-01T03:29:01.230Z,82.09
2022-12-01T03:31:35.231Z,82.08
2022-12-01T03:34:34.394Z,82.10
2022-12-01T03:37:09.316Z,82.35
2022-12-01T03:39:39.999Z,81.84
2022-12-01T03:42:15.932Z,81.96
2022-12-01T03:44:53.574Z,81.54
2022-12-01T03:47:25.184Z,81.73
2022-12-01T03:49:54.551Z,81.82
2022-12-01T03:53:00.315Z,81.85
2022-12-01T03:55:32.279Z,81.77
2022-12-01T03:58:06.570Z,81.58
2022-12-01T04:00:35.967Z,81.75
2022-12-01T04:03:05.049Z,81.56
2022-12-01T04:05:35.528Z,81.65
2022-12-01T04:08:04.149Z,81.77
2022-12-01T04:10:33.316Z,81.45
2022-12-01T04:13:01.757Z,81.60
2022-12-01T04:15:30.038Z,81.50
2022-12-01T04:17:58.268Z,81.69
2022-12-01T04:20:26.525Z,81.37
2022-12-01T04:22:54.990Z,81.37
2022-12-01T04:25:23.298Z,81.63
2022-12-01T04:27:51.496Z,81.48
2022-12-01T04:30:19.775Z,81.48
2022-12-01T04:32:48.011Z,81.77
2022-12-01T04:35:16.359Z,81.61
2022-12-01T04:37:44.565Z,82.10
2022-12-01T04:40:13.122Z,82.18
2022-12-01T04:42:41.408Z,81.61
2022-12-01T04:45:10.327Z,81.77
2022-12-01T04:47:38.577Z,81.45
2022-12-01T04:50:07.351Z,81.66
2022-12-01T04:52:37.887Z,81.91
2022-12-01T04:55:06.637Z,81.63
2022-12-01T04:57:34.964Z,81.50
2022-12-01T05:00:13.231Z,81.54
2022-12-01T05:02:43.668Z,81.28
2022-12-01T05:05:12.984Z,81.37
2022-12-01T05:07:41.461Z,81.33
2022-12-01T05:10:09.931Z,81.29
2022-12-01T05:12:38.280Z,81.64
2022-12-01T05:15:07.543Z,81.55
2022-12-01T05:17:37.238Z,81.47
2022-12-01T05:20:25.083Z,81.70
2022-12-01T05:23:05.176Z,81.52
2022-12-01T05:25:34.775Z,81.58
2022-12-01T05:28:04.431Z,81.40
2022-12-01T05:30:32.882Z,81.53
2022-12-01T05:33:01.294Z,81.82
2022-12-01T05:35:29.567Z,81.95
2022-12-01T05:37:57.819Z,81.59
2022-12-01T05:40:26.119Z,82.82
2022-12-01T05:42:54.422Z,82.48
2022-12-01T05:45:22.981Z,82.24
2022-12-01T05:47:56.099Z,82.01
2022-12-01T05:50:25.709Z,81.88
2022-12-01T05:52:57.003Z,81.78
2022-12-01T05:55:25.225Z,81.94
2022-12-01T05:57:53.575Z,82.04
2022-12-01T06:00:21.885Z,82.02
2022-12-01T06:02:50.142Z,82.05
2022-12-01T06:05:18.401Z,82.07
2022-12-01T06:07:46.746Z,82.15
2022-12-01T06:10:15.247Z,82.14
2022-12-01T06:12:43.528Z,81.86
2022-12-01T06:15:13.076Z,82.03
2022-12-01T06:17:41.573Z,82.09
2022-12-01T06:20:10.955Z,81.93
2022-12-01T06:22:39.714Z,81.91
2022-12-01T06:25:09.301Z,81.72
2022-12-01T06:27:37.572Z,81.74
2022-12-01T06:30:06.725Z,81.82
2022-12-01T06:32:35.127Z,81.78
2022-12-01T06:35:03.993Z,81.86
2022-12-01T06:37:32.237Z,81.63
2022-12-01T06:40:00.523Z,82.26
2022-12-01T06:42:32.575Z,81.83
2022-12-01T06:45:00.865Z,81.78
2022-12-01T06:47:29.152Z,81.49
2022-12-01T06:49:57.411Z,81.24
2022-12-01T06:52:25.713Z,80.77
2022-12-01T06:54:54.046Z,80.63
2022-12-01T06:57:22.590Z,80.74
2022-12-01T06:59:51.478Z,80.52
2022-12-01T07:02:20.188Z,80.56
2022-12-01T07:04:48.513Z,80.62
2022-12-01T07:07:16.879Z,79.47
2022-12-01T07:09:45.087Z,79.22
2022-12-01T07:12:13.332Z,78.93
2022-12-01T07:14:42.652Z,78.55
2022-12-01T07:17:10.911Z,77.42
2022-12-01T07:19:39.217Z,76.61
2022-12-01T07:22:07.609Z,77.30
2022-12-01T07:24:36.495Z,77.34
2022-12-01T07:27:04.681Z,76.65
2022-12-01T07:29:32.960Z,75.84
2022-12-01T07:32:01.251Z,75.67
2022-12-01T07:34:29.506Z,75.16
2022-12-01T07:36:58.582Z,74.29
2022-12-01T07:39:27.085Z,72.86
2022-12-01T07:41:55.361Z,72.36
2022-12-01T07:44:23.608Z,72.80
2022-12-01T07:46:51.840Z,72.42
2022-12-01T07:49:20.053Z,71.84
2022-12-01T07:51:48.305Z,71.30
2022-12-01T07:54:17.943Z,69.97
2022-12-01T07:56:46.507Z,70.43
2022-12-01T07:59:14.770Z,71.57
2022-12-01T08:01:44.839Z,71.32
2022-12-01T08:04:13.297Z,69.94
2022-12-01T08:06:41.662Z,70.02
2022-12-01T08:09:09.940Z,69.96
2022-12-01T08:11:38.188Z,68.92
2022-12-01T08:14:06.471Z,68.16
2022-12-01T08:16:34.789Z,67.17
2022-12-01T08:19:05.573Z,67.92
2022-12-01T08:21:33.931Z,67.58
2022-12-01T08:24:02.343Z,66.96
2022-12-01T08:26:30.999Z,66.26
2022-12-01T08:28:59.708Z,64.59
2022-12-01T08:31:32.079Z,65.38
2022-12-01T08:34:00.343Z,64.76
2022-12-01T08:36:28.599Z,63.80
2022-12-01T08:38:56.858Z,65.17
2022-12-01T08:41:25.455Z,64.04
2022-12-01T08:43:58.706Z,63.08
2022-12-01T08:46:34.950Z,63.15
2022-12-01T08:49:05.138Z,62.56
2022-12-01T08:51:34.037Z,62.41
2022-12-01T08:54:03.018Z,61.97
2022-12-01T08:56:37.890Z,61.81
2022-12-01T08:59:07.122Z,60.59
2022-12-01T09:01:52.208Z,59.88
2022-12-01T09:04:23.297Z,59.24
2022-12-01T09:06:53.651Z,58.00
2022-12-01T09:09:28.647Z,58.22
2022-12-01T09:11:57.574Z,56.96
2022-12-01T09:14:25.840Z,57.60
2022-12-01T09:16:54.439Z,56.05
2022-12-01T09:19:24.891Z,55.89
2022-12-01T09:21:53.622Z,55.11
2022-12-01T09:24:22.412Z,54.79
2022-12-01T09:26:54.506Z,54.53
2022-12-01T09:29:22.780Z,53.52
2022-12-01T09:31:51.384Z,53.71
2022-12-01T09:34:20.370Z,54.36
2022-12-01T09:36:49.341Z,54.03
2022-12-01T09:39:20.678Z,54.25
2022-12-01T09:42:12.984Z,54.60
2022-12-01T09:44:49.910Z,55.07
2022-12-01T09:47:20.489Z,54.52
2022-12-01T09:49:55.581Z,54.20
2022-12-01T09:52:26.712Z,53.71
2022-12-01T09:54:58.517Z,53.38
2022-12-01T09:57:35.426Z,52.87
2022-12-01T10:00:15.688Z,51.78
2022-12-01T10:03:17.955Z,51.36
2022-12-01T10:06:25.153Z,51.42
2022-12-01T10:08:44.268Z,51.35
2022-12-01T10:11:24.752Z,51.15
2022-12-01T10:13:53.078Z,50.37
2022-12-01T10:16:27.993Z,51.09
2022-12-01T10:19:13.481Z,51.52
2022-12-01T10:22:00.550Z,50.26
2022-12-01T10:24:41.053Z,50.75
2022-12-01T10:27:24.410Z,49.52
2022-12-01T10:30:10.206Z,49.90
2022-12-01T10:32:56.329Z,49.84
2022-12-01T10:35:29.356Z,49.33
2022-12-01T10:38:02.100Z,48.76
2022-12-01T10:40:35.337Z,48.59
2022-12-01T10:43:03.649Z,48.16
2022-12-01T10:45:36.159Z,48.49
2022-12-01T10:48:20.296Z,47.96
2022-12-01T10:50:54.497Z,48.13
2022-12-01T10:53:22.675Z,47.46
2022-12-01T10:56:18.456Z,48.23
2022-12-01T10:59:17.767Z,46.29
2022-12-01T11:01:48.489Z,47.11
2022-12-01T11:04:28.978Z,46.54
2022-12-01T11:06:57.761Z,45.23
2022-12-01T11:09:29.303Z,46.03
2022-12-01T11:12:03.292Z,47.73
2022-12-01T11:14:44.355Z,46.39
2022-12-01T11:17:33.393Z,45.95
2022-12-01T11:20:29.377Z,47.57
2022-12-01T11:23:26.544Z,48.87
2022-12-01T11:26:10.550Z,47.80
2022-12-01T11:28:50.188Z,47.60
2022-12-01T11:31:20.270Z,48.44
2022-12-01T11:33:55.168Z,49.54
2022-12-01T11:36:42.731Z,49.86
2022-12-01T11:39:27.757Z,49.53
2022-12-01T11:41:59.979Z,49.89
2022-12-01T11:44:50.208Z,50.92
2022-12-01T11:47:23.617Z,51.27
2022-12-01T11:49:56.743Z,51.98
2022-12-01T11:52:30.785Z,52.16
2022-12-01T11:55:20.502Z,51.54
2022-12-01T11:57:52.469Z,50.33
2022-12-01T12:00:24.167Z,49.27
2022-12-01T12:03:25.013Z,50.18
2022-12-01T12:09:19.326Z,48.62
2022-12-01T12:12:01.917Z,48.62
2022-12-01T12:15:08.599Z,48.72
2022-12-01T12:17:39.525Z,48.55
2022-12-01T12:20:43.061Z,48.16
2022-12-01T12:23:38.058Z,48.16
2022-12-01T12:26:13.384Z,48.41
2022-12-01T12:28:44.557Z,48.65
2022-12-01T12:31:28.048Z,48.84
2022-12-01T12:34:25.420Z,48.85
2022-12-01T12:37:03.498Z,46.76
2022-12-01T12:39:43.772Z,47.67
2022-12-01T12:42:27.272Z,48.45
2022-12-01T12:45:04.631Z,48.77
2022-12-01T12:47:35.878Z,48.79
2022-12-01T12:50:30.128Z,48.69
2022-12-01T12:53:08.665Z,48.25
2022-12-01T12:55:41.886Z,48.63
2022-12-01T12:58:16.718Z,48.67
2022-12-01T13:00:56.315Z,48.75
2022-12-01T13:03:34.817Z,49.08
2022-12-01T13:06:10.331Z,49.02
2022-12-01T13:08:51.157Z,49.90
2022-12-01T13:11:27.826Z,50.14
2022-12-01T13:14:06.708Z,50.81
2022-12-01T13:16:39.715Z,51.21
2022-12-01T13:19:16.682Z,51.54
2022-12-01T13:21:48.447Z,52.02
2022-12-01T13:24:23.486Z,52.43
2022-12-01T13:26:57.560Z,52.65
2022-12-01T13:29:27.498Z,52.98
2022-12-01T13:31:56.112Z,53.70
2022-12-01T13:34:43.722Z,54.03
2022-12-01T13:37:12.229Z,54.63
2022-12-01T13:39:41.874Z,55.14
2022-12-01T13:42:24.139Z,56.15
2022-12-01T13:44:59.399Z,55.65
2022-12-01T13:47:52.946Z,56.14
2022-12-01T13:50:39.296Z,56.59
2022-12-01T13:53:14.355Z,56.97
2022-12-01T13:56:07.756Z,56.86
2022-12-01T13:58:35.944Z,57.35
2022-12-01T14:01:22.905Z,57.10
2022-12-01T14:04:01.319Z,57.64
2022-12-01T14:06:49.705Z,58.04
2022-12-01T14:09:24.088Z,58.92
2022-12-01T14:12:15.149Z,59.41
2022-12-01T14:14:46.478Z,60.09
2022-12-01T14:17:41.791Z,60.70
2022-12-01T14:20:13.020Z,60.57
2022-12-01T14:22:44.728Z,60.75
2022-12-01T14:25:18.874Z,60.99
2022-12-01T14:28:15.905Z,60.47
2022-12-01T14:30:45.926Z,61.01
2022-12-01T14:33:41.744Z,60.91
2022-12-01T14:36:12.895Z,60.94
2022-12-01T14:38:42.648Z,61.67
2022-12-01T14:41:21.102Z,62.15
2022-12-01T14:44:05.398Z,62.22
2022-12-01T14:46:49.072Z,63.32
2022-12-01T14:49:33.159Z,63.52
2022-12-01T14:52:06.878Z,63.83
2022-12-01T14:54:45.379Z,63.38
2022-12-01T14:57:17.732Z,64.49
2022-12-01T14:59:46.091Z,65.28
2022-12-01T15:02:15.075Z,64.36
2022-12-01T15:05:06.074Z,65.84
2022-12-01T15:07:39.620Z,65.31
2022-12-01T15:10:34.609Z,65.75
2022-12-01T15:13:33.464Z,65.88
2022-12-01T15:16:13.355Z,65.68
2022-12-01T15:18:41.723Z,65.59
2022-12-01T15:21:17.836Z,66.06
2022-12-01T15:24:03.634Z,66.51
2022-12-01T15:26:34.695Z,66.40
2022-12-01T15:29:11.524Z,66.71
2022-12-01T15:31:40.277Z,67.02
2022-12-01T15:34:15.715Z,67.22
2022-12-01T15:36:45.008Z,67.21
2022-12-01T15:39:19.835Z,66.71
2022-12-01T15:41:54.084Z,66.72
2022-12-01T15:44:32.307Z,66.70
2022-12-01T15:47:43.804Z,66.99
2022-12-01T15:50:44.452Z,68.13
2022-12-01T15:53:20.176Z,67.80
2022-12-01T15:55:54.100Z,68.02
2022-12-01T15:58:30.369Z,68.18
2022-12-01T16:01:01.820Z,68.54
2022-12-01T16:03:30.782Z,68.48
2022-12-01T16:05:59.178Z,68.42
2022-12-01T16:08:28.448Z,67.63
2022-12-01T16:11:18.161Z,67.37
2022-12-01T16:14:19.744Z,67.53
2022-12-01T16:16:49.635Z,68.03
2022-12-01T16:19:17.878Z,67.84
2022-12-01T16:22:10.552Z,67.38
2022-12-01T16:24:46.961Z,67.38
2022-12-01T16:27:25.184Z,67.14
2022-12-01T16:29:57.554Z,67.02
2022-12-01T16:32:42.735Z,67.00
2022-12-01T16:35:22.951Z,66.64
2022-12-01T16:37:51.301Z,66.33
2022-12-01T16:40:20.167Z,66.43
2022-12-01T16:42:51.202Z,67.25
2022-12-01T16:45:20.316Z,67.75
2022-12-01T16:47:49.674Z,67.77
2022-12-01T16:50:20.734Z,67.78
2022-12-01T16:52:49.168Z,69.33
2022-12-01T16:55:30.827Z,69.22
2022-12-01T16:57:59.098Z,69.93
2022-12-01T17:00:29.475Z,70.03
2022-12-01T17:02:58.608Z,70.47
2022-12-01T17:05:27.163Z,70.43
2022-12-01T17:07:55.538Z,70.51
2022-12-01T17:10:24.686Z,70.89
2022-12-01T17:12:53.017Z,71.09
2022-12-01T17:15:21.321Z,70.38
2022-12-01T17:17:50.261Z,70.35
2022-12-01T17:20:18.981Z,69.86
2022-12-01T17:22:47.991Z,69.89
2022-12-01T17:25:16.755Z,70.55
2022-12-01T17:27:45.929Z,70.71
2022-12-01T17:30:14.581Z,71.15
2022-12-01T17:32:42.989Z,71.01
2022-12-01T17:35:11.348Z,70.40
2022-12-01T17:37:39.643Z,70.86
2022-12-01T17:40:11.511Z,70.85
2022-12-01T17:42:39.834Z,71.09
2022-12-01T17:45:08.714Z,71.76
2022-12-01T17:47:37.052Z,71.00
2022-12-01T17:50:05.778Z,71.46
2022-12-01T17:52:34.069Z,71.83
2022-12-01T17:55:02.349Z,71.31
2022-12-01T17:57:30.554Z,71.12
2022-12-01T17:59:58.825Z,71.45
2022-12-01T18:02:27.656Z,70.58
2022-12-01T18:04:55.968Z,70.73
2022-12-01T18:07:24.342Z,70.86
2022-12-01T18:09:52.769Z,70.57
2022-12-01T18:12:21.053Z,70.76
2022-12-01T18:14:49.452Z,71.03
2022-12-01T18:17:17.975Z,70.97
2022-12-01T18:19:46.235Z,71.02
2022-12-01T18:22:14.527Z,70.93
2022-12-01T18:24:42.739Z,70.88
2022-12-01T18:27:11.017Z,70.61
2022-12-01T18:29:39.434Z,70.74
2022-12-01T18:32:07.933Z,70.61
2022-12-01T18:34:36.284Z,70.62
2022-12-01T18:37:06.129Z,70.70
2022-12-01T18:39:34.726Z,70.68
2022-12-01T18:42:03.065Z,70.95
2022-12-01T18:44:31.499Z,71.43
2022-12-01T18:47:02.782Z,71.81
2022-12-01T18:49:31.191Z,72.06
2022-12-01T18:52:00.478Z,72.75
2022-12-01T18:54:28.728Z,72.17
2022-12-01T18:56:59.091Z,72.07
2022-12-01T18:59:27.659Z,72.79
2022-12-01T19:01:56.355Z,72.31
2022-12-01T19:04:25.226Z,72.57
2022-12-01T19:06:53.493Z,72.34
2022-12-01T19:09:21.862Z,72.93
2022-12-01T19:11:50.347Z,72.36
2022-12-01T19:14:19.759Z,71.95
2022-12-01T19:16:49.071Z,71.80
2022-12-01T19:19:17.363Z,71.89
2022-12-01T19:21:46.134Z,72.08
2022-12-01T19:24:14.457Z,72.84
2022-12-01T19:26:42.948Z,73.06
2022-12-01T19:29:11.632Z,73.41
2022-12-01T19:31:40.311Z,73.81
2022-12-01T19:34:08.773Z,73.75
2022-12-01T19:36:37.199Z,73.60
2022-12-01T19:39:07.646Z,73.51
2022-12-01T19:41:38.824Z,73.44
2022-12-01T19:44:07.434Z,73.35
2022-12-01T19:46:35.954Z,72.86
2022-12-01T19:49:05.774Z,72.76
2022-12-01T19:51:36.626Z,72.85
2022-12-01T19:54:07.125Z,73.57
2022-12-01T19:56:35.469Z,73.39
2022-12-01T19:59:05.009Z,73.53
2022-12-01T20:01:33.589Z,73.19
2022-12-01T20:04:01.871Z,73.75
2022-12-01T20:06:32.663Z,73.77
2022-12-01T20:09:02.782Z,74.14
2022-12-01T20:11:33.048Z,74.52
2022-12-01T20:14:02.664Z,74.28
2022-12-01T20:16:32.160Z,74.51
2022-12-01T20:19:02.867Z,74.54
2022-12-01T20:21:39.375Z,74.66
2022-12-01T20:24:10.245Z,74.61
2022-12-01T20:26:42.365Z,74.58
2022-12-01T20:29:14.700Z,74.92
2022-12-01T20:31:43.859Z,74.89
2022-12-01T20:34:15.561Z,74.68
2022-12-01T20:36:44.172Z,74.80
2022-12-01T20:39:14.146Z,74.98
2022-12-01T20:41:43.116Z,75.21
2022-12-01T20:44:13.177Z,75.05
2022-12-01T20:46:42.086Z,75.32
2022-12-01T20:49:10.277Z,75.55
2022-12-01T20:51:38.898Z,75.61
2022-12-01T20:56:58.462Z,75.48
2022-12-01T20:59:27.727Z,75.84
2022-12-01T21:01:56.358Z,76.17
2022-12-01T21:04:24.775Z,76.08
2022-12-01T21:06:56.428Z,76.14
2022-12-01T21:09:25.663Z,76.50
2022-12-01T21:12:12.899Z,76.70
2022-12-01T21:15:02.694Z,76.64
2022-12-01T21:17:35.582Z,76.47
2022-12-01T21:20:21.625Z,77.10
2022-12-01T21:22:51.410Z,76.80
2022-12-01T21:25:24.659Z,76.92
2022-12-01T21:27:57.011Z,77.03
2022-12-01T21:30:30.014Z,77.54
2022-12-01T21:33:33.694Z,77.04
2022-12-01T21:36:03.252Z,77.45
2022-12-01T21:38:32.019Z,77.54
2022-12-01T21:41:00.384Z,77.26
2022-12-01T21:43:32.680Z,76.93
2022-12-01T21:46:13.591Z,77.13
2022-12-01T21:48:42.502Z,77.08
2022-12-01T21:51:20.101Z,76.89
2022-12-01T21:53:48.991Z,76.88
2022-12-01T21:56:21.387Z,77.27
2022-12-01T21:58:50.471Z,77.44
2022-12-01T22:01:32.810Z,78.21
2022-12-01T22:04:05.816Z,78.55
2022-12-01T22:06:43.345Z,78.11
2022-12-01T22:09:24.439Z,78.00
2022-12-01T22:11:56.253Z,78.28
2022-12-01T22:14:29.822Z,78.77
2022-12-01T22:17:07.226Z,78.17
2022-12-01T22:19:42.454Z,78.45
2022-12-01T22:22:25.472Z,78.37
2022-12-01T22:24:58.876Z,78.37
2022-12-01T22:27:38.314Z,78.36
2022-12-01T22:30:06.674Z,78.73
2022-12-01T22:32:46.219Z,78.87
2022-12-01T22:35:20.305Z,78.70
2022-12-01T22:37:54.498Z,78.50
2022-12-01T22:40:29.312Z,79.02
2022-12-01T22:43:20.305Z,78.67
2022-12-01T22:46:01.938Z,78.55
2022-12-01T22:48:35.000Z,78.84
2022-12-01T22:51:23.735Z,78.81
2022-12-01T22:53:59.052Z,78.79
2022-12-01T22:56:27.906Z,78.67
2022-12-01T22:58:56.732Z,78.65
2022-12-01T23:01:29.334Z,78.87
2022-12-01T23:04:21.969Z,78.74
2022-12-01T23:06:59.709Z,79.04
2022-12-01T23:09:33.252Z,78.81
2022-12-01T23:12:10.369Z,79.04
2022-12-01T23:14:45.936Z,78.77
2022-12-01T23:17:22.119Z,78.83
2022-12-01T23:19:53.634Z,78.84
2022-12-01T23:22:22.032Z,78.84
2022-12-01T23:24:50.697Z,78.85
2022-12-01T23:27:19.400Z,78.55
2022-12-01T23:29:47.931Z,78.66
2022-12-01T23:32:17.697Z,78.70
2022-12-01T23:34:46.140Z,78.55
2022-12-01T23:37:37.267Z,79.00
2022-12-01T23:40:28.763Z,78.56
2022-12-01T23:43:15.844Z,78.49
2022-12-01T23:45:45.571Z,78.60
2022-12-01T23:48:22.198Z,78.34
2022-12-01T23:50:53.186Z,78.40
2022-12-01T23:53:26.774Z,78.53
2022-12-01T23:55:56.811Z,78.19
2022-12-01T23:58:25.400Z,78.46
